Time;durP1;ratioP1;P1;durP2;ratioP2;P2;SDS_P1;SDS_P2;PMS_P1;PMS_P2;Temp;Humidity;BMP_temperature;BMP_pressure;BME280_temperature;BME280_humidity;BME280_pressure;Samples;Min_cycle;Max_cycle;Signal;HPM_P1;HPM_P2
2021/09/13 00:01:08;;;;;;;9.40;6.05;;;14.60;93.00;;;;;;5032362;28;20038;-80
2021/09/13 00:03:34;;;;;;;9.50;5.65;;;14.60;93.00;;;;;;5017044;28;20038;-80
2021/09/13 00:05:59;;;;;;;7.70;5.30;;;14.50;93.00;;;;;;5016993;28;20113;-77
2021/09/13 00:08:25;;;;;;;10.38;5.70;;;14.50;93.10;;;;;;5015647;28;20030;-76
2021/09/13 00:10:51;;;;;;;11.65;6.00;;;14.50;93.10;;;;;;5032799;28;20053;-77
2021/09/13 00:13:17;;;;;;;9.13;5.57;;;14.50;93.20;;;;;;5017314;28;20025;-80
2021/09/13 00:15:43;;;;;;;11.45;5.22;;;14.40;93.20;;;;;;5017110;28;20560;-76
2021/09/13 00:18:09;;;;;;;11.52;6.30;;;14.40;93.30;;;;;;5016270;28;20073;-76
2021/09/13 00:20:34;;;;;;;7.88;6.05;;;14.40;93.40;;;;;;5015839;28;20463;-80
2021/09/13 00:23:01;;;;;;;13.02;6.13;;;14.30;93.40;;;;;;5015514;28;20146;-76
2021/09/13 00:25:26;;;;;;;12.77;6.45;;;14.40;93.50;;;;;;5016672;28;20030;-77
2021/09/13 00:27:53;;;;;;;13.48;6.68;;;14.40;93.50;;;;;;5016032;28;20038;-81
2021/09/13 00:30:19;;;;;;;9.77;6.22;;;14.30;93.50;;;;;;5015246;28;20470;-81
2021/09/13 00:32:45;;;;;;;8.00;5.80;;;14.30;93.60;;;;;;5015308;28;20030;-81
2021/09/13 00:35:11;;;;;;;8.88;5.95;;;14.40;93.70;;;;;;5031771;28;20022;-76
2021/09/13 00:37:37;;;;;;;11.50;6.70;;;14.40;93.80;;;;;;5016149;28;20019;-77
2021/09/13 00:40:03;;;;;;;11.07;6.70;;;14.30;94.10;;;;;;5016770;28;20058;-76
2021/09/13 00:42:29;;;;;;;13.95;6.13;;;14.20;93.80;;;;;;5032085;28;20084;-81
2021/09/13 00:44:55;;;;;;;16.00;7.03;;;14.30;93.90;;;;;;5016749;28;20056;-80
2021/09/13 00:47:21;;;;;;;12.57;7.47;;;14.20;93.90;;;;;;5015081;28;20062;-81
2021/09/13 00:49:47;;;;;;;11.55;7.32;;;14.20;94.00;;;;;;5031865;28;20052;-81
2021/09/13 00:52:14;;;;;;;11.90;5.72;;;14.20;94.10;;;;;;5014843;28;20431;-81
2021/09/13 00:54:40;;;;;;;11.50;7.00;;;14.20;94.10;;;;;;5031302;28;20500;-81
2021/09/13 00:57:06;;;;;;;15.48;7.43;;;14.20;94.20;;;;;;4994386;28;20030;-77
2021/09/13 00:59:32;;;;;;;11.05;7.03;;;14.20;94.20;;;;;;5011421;28;20037;-77
2021/09/13 01:01:58;;;;;;;11.48;7.05;;;14.20;94.20;;;;;;4996878;28;20030;-81
2021/09/13 01:04:24;;;;;;;8.95;6.22;;;14.10;94.30;;;;;;4995022;28;20027;-77
2021/09/13 01:06:49;;;;;;;14.00;7.43;;;14.10;94.30;;;;;;4998609;28;20045;-81
2021/09/13 01:09:15;;;;;;;9.13;7.05;;;14.10;94.30;;;;;;5018530;28;20045;-81
2021/09/13 01:11:42;;;;;;;9.45;6.50;;;14.10;94.40;;;;;;5015781;28;20394;-76
2021/09/13 01:14:08;;;;;;;10.10;7.00;;;14.10;94.40;;;;;;5014352;28;20026;-76
2021/09/13 01:16:33;;;;;;;9.90;6.65;;;14.00;94.40;;;;;;5014027;28;20022;-80
2021/09/13 01:18:59;;;;;;;9.43;6.65;;;14.00;94.40;;;;;;4998142;28;20028;-76
2021/09/13 01:21:27;;;;;;;12.43;8.07;;;14.00;94.50;;;;;;5014618;28;20421;-80
2021/09/13 01:23:53;;;;;;;13.45;7.32;;;13.90;94.50;;;;;;5015421;28;20539;-81
2021/09/13 01:26:19;;;;;;;12.15;7.38;;;14.00;94.50;;;;;;5014230;28;20113;-81
2021/09/13 01:28:45;;;;;;;14.98;7.72;;;13.90;94.50;;;;;;5030573;28;20081;-81
2021/09/13 01:31:11;;;;;;;10.93;7.68;;;13.90;94.60;;;;;;4997791;28;20034;-79
2021/09/13 01:33:37;;;;;;;12.02;7.75;;;13.90;94.60;;;;;;4997938;28;20026;-80
2021/09/13 01:36:03;;;;;;;11.07;7.60;;;14.00;94.70;;;;;;5015368;28;20490;-81
2021/09/13 01:38:31;;;;;;;11.10;7.78;;;13.90;94.70;;;;;;5014008;28;20014;-77
2021/09/13 01:40:57;;;;;;;13.05;8.10;;;13.90;94.70;;;;;;5014287;28;20022;-80
2021/09/13 01:43:22;;;;;;;12.05;8.07;;;13.90;94.70;;;;;;5015789;28;20356;-77
2021/09/13 01:45:48;;;;;;;12.95;8.65;;;13.90;94.70;;;;;;5014074;28;20212;-80
2021/09/13 01:48:14;;;;;;;14.60;8.40;;;13.80;94.70;;;;;;5014018;28;20045;-77
2021/09/13 01:50:40;;;;;;;11.23;7.95;;;13.80;94.70;;;;;;5014138;28;20026;-80
2021/09/13 01:53:06;;;;;;;12.48;8.65;;;13.80;94.80;;;;;;5014946;28;20022;-76
2021/09/13 01:55:32;;;;;;;10.75;8.18;;;13.80;94.80;;;;;;5013681;28;20014;-76
2021/09/13 01:57:57;;;;;;;11.68;7.93;;;13.80;94.80;;;;;;5013602;28;20034;-80
2021/09/13 02:00:23;;;;;;;17.27;8.00;;;13.70;94.80;;;;;;5013974;28;20080;-76
2021/09/13 02:02:49;;;;;;;12.15;8.48;;;13.70;94.90;;;;;;5015044;28;20029;-80
2021/09/13 02:05:15;;;;;;;11.80;7.38;;;13.70;94.90;;;;;;4997476;28;20026;-80
2021/09/13 02:07:41;;;;;;;12.35;8.48;;;13.70;94.90;;;;;;5013710;28;20438;-76
2021/09/13 02:10:07;;;;;;;13.55;8.43;;;13.70;95.00;;;;;;5014698;28;20037;-80
2021/09/13 02:12:33;;;;;;;12.70;8.23;;;13.70;95.00;;;;;;4997087;28;20398;-80
2021/09/13 02:14:59;;;;;;;10.82;7.70;;;13.60;95.00;;;;;;5015046;28;20022;-80
2021/09/13 02:17:24;;;;;;;10.70;7.43;;;13.60;95.00;;;;;;5014703;28;20097;-76
2021/09/13 02:19:50;;;;;;;11.00;7.65;;;13.60;95.10;;;;;;5030087;28;20022;-76
2021/09/13 02:22:17;;;;;;;13.30;7.30;;;13.60;95.10;;;;;;4996962;28;20022;-80
2021/09/13 02:24:42;;;;;;;10.73;7.28;;;13.60;95.10;;;;;;5014578;28;20030;-80
2021/09/13 02:27:08;;;;;;;11.30;7.07;;;13.60;95.20;;;;;;5013261;28;20081;-80
2021/09/13 02:29:34;;;;;;;9.23;6.38;;;13.60;95.20;;;;;;5013300;28;20064;-80
2021/09/13 02:32:01;;;;;;;10.20;7.07;;;13.50;95.20;;;;;;5013341;28;20034;-80
2021/09/13 02:34:26;;;;;;;9.40;6.75;;;13.50;95.20;;;;;;5013115;28;20030;-80
2021/09/13 02:36:52;;;;;;;11.05;7.07;;;13.50;95.20;;;;;;5013009;28;20033;-80
2021/09/13 02:39:18;;;;;;;10.82;7.28;;;13.50;95.20;;;;;;5013179;28;20414;-76
2021/09/13 02:41:43;;;;;;;9.15;6.53;;;13.50;95.20;;;;;;5013265;28;20477;-76
2021/09/13 02:44:09;;;;;;;8.00;5.60;;;13.50;95.20;;;;;;5014507;28;20116;-76
2021/09/13 02:46:35;;;;;;;9.48;6.65;;;13.50;95.20;;;;;;5013154;28;20034;-79
2021/09/13 02:49:00;;;;;;;7.68;5.45;;;13.40;95.20;;;;;;5014450;28;20033;-80
2021/09/13 02:51:26;;;;;;;8.60;5.78;;;13.40;95.20;;;;;;4996547;28;20030;-76
2021/09/13 02:53:51;;;;;;;8.05;5.75;;;13.40;95.30;;;;;;5013500;28;20530;-76
2021/09/13 02:56:17;;;;;;;8.00;6.00;;;13.40;95.30;;;;;;5012782;28;20022;-76
2021/09/13 02:58:43;;;;;;;8.38;5.65;;;13.40;95.30;;;;;;5012659;28;20058;-76
2021/09/13 03:01:09;;;;;;;8.88;6.45;;;13.40;95.30;;;;;;5012234;28;20036;-76
2021/09/13 03:03:35;;;;;;;9.82;5.65;;;13.30;95.30;;;;;;5012690;28;20026;-80
2021/09/13 03:06:00;;;;;;;8.35;6.05;;;13.30;95.30;;;;;;5012814;28;20026;-80
2021/09/13 03:08:26;;;;;;;7.70;5.53;;;13.30;95.70;;;;;;5012923;28;20064;-76
2021/09/13 03:10:52;;;;;;;7.53;5.32;;;13.30;95.40;;;;;;4996098;28;20032;-76
2021/09/13 03:13:18;;;;;;;11.23;4.60;;;13.40;95.40;;;;;;5012725;28;20029;-76
2021/09/13 03:15:44;;;;;;;7.43;4.25;;;13.30;95.70;;;;;;4996231;28;20061;-76
2021/09/13 03:18:09;;;;;;;7.68;4.35;;;13.30;95.50;;;;;;5014019;28;20101;-80
2021/09/13 03:20:35;;;;;;;6.72;4.03;;;13.30;95.50;;;;;;5012686;28;20076;-80
2021/09/13 03:23:01;;;;;;;7.80;3.83;;;13.20;95.50;;;;;;4996659;28;20068;-80
2021/09/13 03:25:26;;;;;;;10.43;4.80;;;13.30;95.60;;;;;;4996139;28;20037;-79
2021/09/13 03:27:53;;;;;;;8.40;4.70;;;13.30;95.60;;;;;;5012405;28;20034;-80
2021/09/13 03:30:18;;;;;;;12.32;4.78;;;13.30;95.70;;;;;;5013699;28;20045;-79
2021/09/13 03:32:44;;;;;;;27.35;5.22;;;13.20;95.70;;;;;;5012360;28;20049;-80
2021/09/13 03:35:10;;;;;;;7.53;5.07;;;13.20;95.70;;;;;;5012548;28;20062;-80
2021/09/13 03:37:36;;;;;;;6.82;4.70;;;13.20;95.70;;;;;;5012354;28;20037;-80
2021/09/13 03:40:02;;;;;;;12.68;5.35;;;13.20;95.70;;;;;;5012241;28;20467;-79
2021/09/13 03:42:28;;;;;;;35.28;5.53;;;13.20;96.00;;;;;;5012790;28;20029;-75
2021/09/13 03:44:53;;;;;;;33.55;5.28;;;13.10;95.70;;;;;;5013285;28;20109;-76
2021/09/13 03:47:19;;;;;;;91.15;5.50;;;13.10;95.70;;;;;;4995542;28;20064;-76
2021/09/13 03:49:45;;;;;;;11.27;3.72;;;13.10;95.70;;;;;;5012206;28;20108;-76
2021/09/13 03:52:10;;;;;;;15.27;3.90;;;13.00;95.70;;;;;;5012221;28;20040;-79
2021/09/13 03:54:36;;;;;;;19.17;3.33;;;13.00;95.70;;;;;;5012232;28;20113;-79
2021/09/13 03:57:03;;;;;;;27.27;3.33;;;13.00;95.80;;;;;;5012059;28;20489;-75
2021/09/13 03:59:29;;;;;;;41.13;4.25;;;13.00;95.80;;;;;;5012317;28;20037;-75
2021/09/13 04:01:54;;;;;;;9.57;3.50;;;13.00;95.70;;;;;;5011960;28;20026;-75
2021/09/13 04:04:24;;;;;;;4.55;3.20;;;13.00;95.70;;;;;;5012288;28;20042;-75
2021/09/13 04:07:00;;;;;;;5.20;3.38;;;12.90;95.70;;;;;;5013608;28;20041;-79
2021/09/13 04:12:01;;;;;;;5.13;3.33;;;12.90;95.90;;;;;;4997050;28;20139;-79
2021/09/13 04:14:29;;;;;;;5.57;3.55;;;12.90;95.90;;;;;;5016943;28;20032;-75
2021/09/13 04:16:56;;;;;;;7.32;4.05;;;13.00;96.00;;;;;;5017136;28;20018;-75
2021/09/13 04:19:22;;;;;;;7.28;4.28;;;13.00;96.00;;;;;;5015565;28;20137;-79
2021/09/13 04:21:49;;;;;;;6.05;4.07;;;13.10;96.00;;;;;;5015614;28;20030;-80
2021/09/13 04:24:15;;;;;;;6.70;4.25;;;13.10;96.10;;;;;;4999068;28;20124;-79
2021/09/13 04:26:41;;;;;;;7.25;4.40;;;13.10;96.10;;;;;;5016680;28;20049;-79
2021/09/13 04:29:07;;;;;;;8.25;5.18;;;13.10;96.10;;;;;;5015187;28;20483;-79
2021/09/13 04:31:33;;;;;;;8.15;5.03;;;13.10;96.10;;;;;;5016511;28;20061;-79
2021/09/13 04:33:59;;;;;;;6.97;4.30;;;13.20;96.10;;;;;;5015283;28;20018;-80
2021/09/13 04:36:25;;;;;;;7.15;4.35;;;13.20;96.10;;;;;;4999122;28;20018;-77
2021/09/13 04:38:50;;;;;;;5.43;3.53;;;13.20;96.10;;;;;;4999239;28;20378;-80
2021/09/13 04:41:16;;;;;;;6.75;3.90;;;13.20;96.10;;;;;;5015423;28;20038;-80
2021/09/13 04:43:42;;;;;;;6.25;4.35;;;13.20;96.10;;;;;;5015367;28;20049;-76
2021/09/13 04:46:08;;;;;;;7.63;5.13;;;13.20;96.10;;;;;;5016803;28;20064;-76
2021/09/13 04:48:33;;;;;;;7.07;4.88;;;13.20;96.10;;;;;;5015211;28;20435;-75
2021/09/13 04:50:59;;;;;;;7.38;4.72;;;13.20;96.10;;;;;;4999214;28;20382;-76
2021/09/13 04:53:25;;;;;;;6.93;4.57;;;13.20;96.10;;;;;;5014991;28;20030;-76
2021/09/13 04:55:50;;;;;;;6.47;3.97;;;13.30;96.10;;;;;;5014893;28;20053;-80
2021/09/13 04:58:16;;;;;;;5.90;3.88;;;13.30;96.10;;;;;;5015648;28;20060;-76
2021/09/13 05:00:42;;;;;;;4.82;3.30;;;13.30;96.10;;;;;;4982304;28;20026;-75
2021/09/13 05:03:08;;;;;;;4.80;3.00;;;13.20;96.00;;;;;;4998664;28;20030;-75
2021/09/13 05:05:34;;;;;;;5.63;3.83;;;13.20;96.00;;;;;;5014707;28;20029;-79
2021/09/13 05:08:00;;;;;;;6.43;3.42;;;13.20;96.00;;;;;;5015031;28;20034;-79
2021/09/13 05:10:25;;;;;;;6.25;3.65;;;13.20;95.90;;;;;;5015865;28;20026;-79
2021/09/13 05:12:51;;;;;;;8.73;3.53;;;13.10;96.00;;;;;;5014712;28;20533;-79
2021/09/13 05:15:17;;;;;;;7.43;3.95;;;13.10;96.20;;;;;;4981312;28;20104;-79
2021/09/13 05:17:43;;;;;;;5.53;3.72;;;13.10;96.00;;;;;;5014352;28;20105;-79
2021/09/13 05:20:09;;;;;;;8.48;3.85;;;13.10;96.00;;;;;;5014521;28;20143;-79
2021/09/13 05:22:36;;;;;;;5.35;3.63;;;13.10;96.00;;;;;;5015737;28;20033;-79
2021/09/13 05:25:03;;;;;;;5.43;3.60;;;13.10;96.10;;;;;;5014020;28;20054;-80
2021/09/13 05:27:29;;;;;;;6.40;3.55;;;13.10;96.10;;;;;;5014078;28;20033;-75
2021/09/13 05:29:54;;;;;;;7.30;3.60;;;13.10;96.20;;;;;;5015319;28;20128;-79
2021/09/13 05:32:20;;;;;;;6.88;3.90;;;13.10;96.20;;;;;;5014983;28;20433;-79
2021/09/13 05:34:45;;;;;;;5.55;3.90;;;13.10;96.20;;;;;;4997675;28;20026;-79
2021/09/13 05:37:11;;;;;;;6.55;4.30;;;13.20;96.30;;;;;;5014445;28;20029;-75
2021/09/13 05:39:37;;;;;;;6.40;3.63;;;13.20;96.30;;;;;;5015674;28;20022;-75
2021/09/13 05:42:03;;;;;;;5.65;3.78;;;13.20;96.60;;;;;;5015458;28;20030;-75
2021/09/13 05:44:29;;;;;;;8.30;4.13;;;13.20;96.40;;;;;;4997161;28;20172;-80
2021/09/13 05:46:55;;;;;;;6.72;3.45;;;13.30;96.40;;;;;;5013557;28;20033;-79
2021/09/13 05:49:20;;;;;;;7.35;4.22;;;13.20;96.40;;;;;;5013411;28;20026;-79
2021/09/13 05:51:50;;;;;;;7.05;4.20;;;13.30;96.40;;;;;;5013300;28;20030;-79
2021/09/13 05:54:20;;;;;;;5.93;4.07;;;13.30;96.50;;;;;;4997852;28;20021;-80
2021/09/13 05:56:49;;;;;;;6.97;4.13;;;13.30;96.40;;;;;;5015012;28;20022;-79
2021/09/13 05:59:25;;;;;;;7.57;4.45;;;13.30;96.40;;;;;;5012633;28;20041;-80
2021/09/13 06:01:51;;;;;;;7.65;5.03;;;13.30;96.40;;;;;;5014944;28;20026;-76
2021/09/13 06:04:18;;;;;;;6.65;3.92;;;13.40;96.50;;;;;;5013321;28;20113;-75
2021/09/13 06:06:43;;;;;;;7.95;5.10;;;13.50;96.50;;;;;;5014523;28;20148;-79
2021/09/13 06:09:10;;;;;;;6.72;4.57;;;13.40;96.50;;;;;;4996833;28;20518;-79
2021/09/13 06:11:36;;;;;;;7.88;4.75;;;13.40;96.50;;;;;;5014443;28;20032;-81
2021/09/13 06:14:03;;;;;;;7.50;5.13;;;13.50;96.50;;;;;;5000571;28;20100;-80
2021/09/13 06:16:28;;;;;;;8.73;5.20;;;13.40;96.50;;;;;;4994828;28;20078;-80
2021/09/13 06:18:54;;;;;;;7.18;4.78;;;13.50;96.50;;;;;;4994572;28;20379;-80
2021/09/13 06:21:20;;;;;;;7.57;5.30;;;13.50;96.50;;;;;;4994942;28;20030;-80
2021/09/13 06:23:45;;;;;;;8.43;5.78;;;13.50;96.50;;;;;;4994678;28;20035;-74
2021/09/13 06:26:12;;;;;;;8.52;5.38;;;13.50;96.50;;;;;;4993557;28;20069;-75
2021/09/13 06:28:38;;;;;;;9.25;5.95;;;13.50;96.50;;;;;;4993080;28;20046;-76
2021/09/13 06:31:04;;;;;;;8.45;5.50;;;13.50;96.50;;;;;;4996803;28;20062;-75
2021/09/13 06:33:31;;;;;;;9.88;5.68;;;13.60;96.60;;;;;;5012944;28;20026;-80
2021/09/13 06:35:57;;;;;;;8.25;5.85;;;13.60;96.60;;;;;;4996051;28;20034;-79
2021/09/13 06:38:22;;;;;;;9.57;6.35;;;13.60;96.60;;;;;;5012772;28;20037;-80
2021/09/13 06:40:48;;;;;;;10.38;5.93;;;13.70;96.60;;;;;;5012895;28;20040;-79
2021/09/13 06:43:16;;;;;;;9.68;6.15;;;13.70;96.60;;;;;;5025985;28;20067;-75
2021/09/13 06:45:44;;;;;;;9.38;6.25;;;13.70;96.60;;;;;;5005841;28;20038;-79
2021/09/13 06:48:12;;;;;;;10.38;6.15;;;13.70;96.50;;;;;;5004759;28;20026;-79
2021/09/13 06:50:38;;;;;;;10.27;6.47;;;13.80;96.60;;;;;;5014122;28;20034;-79
2021/09/13 06:53:05;;;;;;;10.18;5.75;;;13.80;96.60;;;;;;5013818;28;20081;-79
2021/09/13 06:55:31;;;;;;;11.27;5.50;;;13.80;96.60;;;;;;5012551;28;20386;-81
2021/09/13 06:57:58;;;;;;;7.70;5.05;;;13.90;96.60;;;;;;5012084;28;20018;-79
2021/09/13 07:00:24;;;;;;;13.10;6.55;;;13.90;96.60;;;;;;5012430;28;20108;-75
2021/09/13 07:02:50;;;;;;;7.35;4.85;;;14.00;96.60;;;;;;5013751;28;20129;-80
2021/09/13 07:05:16;;;;;;;9.70;5.47;;;14.00;96.60;;;;;;5012534;28;20112;-76
2021/09/13 07:07:42;;;;;;;12.02;6.45;;;14.00;96.60;;;;;;4996264;28;20443;-81
2021/09/13 07:10:10;;;;;;;11.90;5.63;;;14.10;96.60;;;;;;5012481;28;20370;-75
2021/09/13 07:12:37;;;;;;;11.70;6.28;;;14.10;96.50;;;;;;5012474;28;20014;-79
2021/09/13 07:15:04;;;;;;;10.13;6.15;;;14.20;96.50;;;;;;4996375;28;20172;-79
2021/09/13 07:17:30;;;;;;;13.38;6.55;;;14.20;96.50;;;;;;5012544;28;20049;-75
2021/09/13 07:19:55;;;;;;;9.77;6.32;;;14.20;96.50;;;;;;5013989;28;20417;-74
2021/09/13 07:22:21;;;;;;;10.23;5.50;;;14.20;96.40;;;;;;5013609;28;20470;-75
2021/09/13 07:24:48;;;;;;;11.35;5.55;;;14.30;96.40;;;;;;5013522;28;20474;-80
2021/09/13 07:27:14;;;;;;;11.00;6.38;;;14.30;96.40;;;;;;5012557;28;20042;-75
2021/09/13 07:29:40;;;;;;;8.25;5.50;;;14.40;96.40;;;;;;5012098;28;20050;-80
2021/09/13 07:32:06;;;;;;;10.68;6.22;;;14.40;96.40;;;;;;5012015;28;20042;-80
2021/09/13 07:34:33;;;;;;;10.52;6.78;;;14.50;96.50;;;;;;5013576;28;20034;-80
2021/09/13 07:36:59;;;;;;;11.18;6.03;;;14.50;96.40;;;;;;5013622;28;20042;-80
2021/09/13 07:39:27;;;;;;;13.32;7.07;;;14.60;96.50;;;;;;5013480;28;20057;-80
2021/09/13 07:41:53;;;;;;;12.18;6.82;;;14.60;96.50;;;;;;5013185;28;20034;-76
2021/09/13 07:44:19;;;;;;;14.48;6.70;;;14.60;96.50;;;;;;5013316;28;20030;-77
2021/09/13 07:46:45;;;;;;;12.45;6.88;;;14.70;96.50;;;;;;4980238;28;20045;-81
2021/09/13 07:49:10;;;;;;;16.10;6.80;;;14.80;96.60;;;;;;5000725;28;20490;-77
2021/09/13 07:51:36;;;;;;;12.38;6.40;;;14.80;96.70;;;;;;5016049;28;20501;-77
2021/09/13 07:54:03;;;;;;;16.85;6.93;;;14.90;96.70;;;;;;4999854;28;20487;-76
2021/09/13 07:56:28;;;;;;;15.30;6.65;;;15.00;96.70;;;;;;4999726;28;20081;-81
2021/09/13 07:58:54;;;;;;;12.82;6.82;;;15.00;96.70;;;;;;5017295;28;20018;-76
2021/09/13 08:01:21;;;;;;;13.57;7.05;;;15.10;96.80;;;;;;5015917;28;20022;-77
2021/09/13 08:03:46;;;;;;;12.82;6.80;;;15.20;96.90;;;;;;5015994;28;20113;-76
2021/09/13 08:06:12;;;;;;;13.38;6.30;;;15.30;96.90;;;;;;5015756;28;20227;-77
2021/09/13 08:08:37;;;;;;;10.60;6.10;;;15.40;96.90;;;;;;4999580;28;20403;-77
2021/09/13 08:11:04;;;;;;;12.98;6.70;;;15.40;96.90;;;;;;5015686;28;20513;-81
2021/09/13 08:13:30;;;;;;;15.32;5.75;;;15.50;96.90;;;;;;5015625;28;20091;-77
2021/09/13 08:15:56;;;;;;;11.88;5.45;;;15.60;97.00;;;;;;5015772;28;20124;-82
2021/09/13 08:18:22;;;;;;;11.80;5.80;;;15.70;97.00;;;;;;5032177;28;20034;-81
2021/09/13 08:20:47;;;;;;;11.40;6.13;;;15.80;97.00;;;;;;5016719;28;20030;-82
2021/09/13 08:23:13;;;;;;;13.90;5.57;;;16.00;97.00;;;;;;5015521;28;20029;-81
2021/09/13 08:25:39;;;;;;;11.13;5.55;;;16.10;96.90;;;;;;5032121;28;20079;-82
2021/09/13 08:28:05;;;;;;;9.65;4.85;;;16.20;96.80;;;;;;5031878;28;20040;-80
2021/09/13 08:30:30;;;;;;;8.00;5.13;;;16.40;96.80;;;;;;5016587;28;20517;-82
2021/09/13 08:32:59;;;;;;;12.82;5.72;;;16.50;96.80;;;;;;5031913;28;20492;-81
2021/09/13 08:35:24;;;;;;;11.55;5.35;;;16.60;96.70;;;;;;5015191;28;20026;-77
2021/09/13 08:37:50;;;;;;;9.73;5.05;;;16.70;96.50;;;;;;5032132;28;20022;-81
2021/09/13 08:40:15;;;;;;;7.18;4.10;;;16.90;96.50;;;;;;5015290;28;20026;-80
2021/09/13 08:42:47;;;;;;;8.60;3.65;;;17.00;96.40;;;;;;5015165;28;20099;-80
2021/09/13 08:45:16;;;;;;;7.97;3.90;;;17.10;96.20;;;;;;5016326;28;20068;-78
2021/09/13 08:47:55;;;;;;;7.40;3.85;;;17.20;96.00;;;;;;4999219;28;20026;-81
2021/09/13 08:51:06;;;;;;;6.90;3.78;;;17.30;95.80;;;;;;5016178;28;20094;-81
2021/09/13 08:53:13;;;;;;;11.15;3.83;;;17.50;95.70;;;;;;5009581;28;20046;-81
2021/09/13 08:55:38;;;;;;;7.80;3.53;;;17.60;95.60;;;;;;5014864;28;20038;-81
2021/09/13 08:58:05;;;;;;;7.20;3.08;;;17.70;95.40;;;;;;4998335;28;20030;-81
2021/09/13 09:00:33;;;;;;;10.45;3.20;;;17.80;95.10;;;;;;5014279;28;20030;-82
2021/09/13 09:02:59;;;;;;;5.75;2.78;;;17.90;94.90;;;;;;5014538;28;20018;-82
2021/09/13 09:05:27;;;;;;;4.20;2.30;;;18.00;94.60;;;;;;4998262;28;20412;-81
2021/09/13 09:07:55;;;;;;;8.40;2.05;;;18.10;94.30;;;;;;5011788;28;20026;-80
2021/09/13 09:10:23;;;;;;;7.20;1.95;;;18.20;94.10;;;;;;5014595;28;20382;-81
2021/09/13 09:13:02;;;;;;;4.80;1.52;;;18.20;93.80;;;;;;5015529;28;20030;-78
2021/09/13 09:15:30;;;;;;;4.03;1.55;;;18.40;93.60;;;;;;5015804;28;20160;-78
2021/09/13 09:17:57;;;;;;;3.60;0.90;;;18.40;93.50;;;;;;5014400;28;20022;-78
2021/09/13 09:20:24;;;;;;;3.53;0.68;;;18.50;93.20;;;;;;5014620;28;20034;-78
2021/09/13 09:23:04;;;;;;;3.15;0.80;;;18.60;92.80;;;;;;5014311;28;20032;-78
2021/09/13 09:25:33;;;;;;;1.45;0.60;;;18.70;92.50;;;;;;5014414;28;20030;-78
2021/09/13 09:28:06;;;;;;;2.53;0.60;;;18.80;92.20;;;;;;5015498;28;20829;-78
2021/09/13 09:30:46;;;;;;;4.53;0.80;;;18.90;92.20;;;;;;5030931;28;20087;-78
2021/09/13 09:33:15;;;;;;;3.13;0.68;;;19.00;91.60;;;;;;5015454;28;20042;-78
2021/09/13 09:35:56;;;;;;;1.63;0.50;;;19.10;91.40;;;;;;5030719;28;20029;-78
2021/09/13 09:38:29;;;;;;;2.60;0.70;;;19.20;91.10;;;;;;5015482;28;20068;-78
2021/09/13 09:41:09;;;;;;;4.50;0.50;;;19.30;90.70;;;;;;5015261;28;20050;-78
2021/09/13 09:43:49;;;;;;;2.47;0.60;;;19.40;90.50;;;;;;4998967;28;20486;-78
2021/09/13 09:46:15;;;;;;;2.53;0.60;;;19.60;90.10;;;;;;5013774;28;20169;-78
2021/09/13 09:48:41;;;;;;;3.00;0.50;;;19.70;90.00;;;;;;5004717;28;20054;-78
2021/09/13 09:51:27;;;;;;;1.60;0.40;;;19.80;89.30;;;;;;4994822;28;20035;-78
2021/09/13 09:53:52;;;;;;;1.77;0.30;;;20.00;88.20;;;;;;4994171;28;20031;-78
2021/09/13 09:56:18;;;;;;;1.98;0.40;;;20.00;88.00;;;;;;4994594;28;20033;-79
2021/09/13 09:59:17;;;;;;;2.72;0.60;;;20.10;87.50;;;;;;4994120;28;20050;-80
2021/09/13 10:01:44;;;;;;;1.98;0.30;;;20.30;86.20;;;;;;4978225;28;20562;-81
2021/09/13 10:04:23;;;;;;;1.60;0.50;;;20.40;86.40;;;;;;4995285;28;20034;-82
2021/09/13 10:06:53;;;;;;;2.38;0.32;;;20.60;85.60;;;;;;4995680;28;20041;-79
2021/09/13 10:09:20;;;;;;;1.48;0.40;;;20.80;85.40;;;;;;4995341;28;20038;-80
2021/09/13 10:11:48;;;;;;;1.45;0.30;;;21.00;84.70;;;;;;5018821;28;20498;-81
2021/09/13 10:14:20;;;;;;;3.55;0.47;;;21.20;83.90;;;;;;5013311;28;20026;-81
2021/09/13 10:16:46;;;;;;;0.98;0.25;;;21.30;82.90;;;;;;5014581;28;20100;-78
2021/09/13 10:19:13;;;;;;;2.17;0.50;;;21.50;82.40;;;;;;5013408;28;20018;-80
2021/09/13 10:21:38;;;;;;;1.38;0.25;;;21.70;82.50;;;;;;5013180;28;20030;-80
2021/09/13 10:24:17;;;;;;;1.70;0.22;;;22.20;82.30;;;;;;5013067;28;20076;-80
2021/09/13 10:26:47;;;;;;;1.77;0.20;;;22.60;81.10;;;;;;5014588;28;20133;-78
2021/09/13 10:29:12;;;;;;;1.35;0.20;;;23.20;79.70;;;;;;5013029;28;20430;-78
2021/09/13 10:31:41;;;;;;;1.25;0.20;;;23.80;77.90;;;;;;5013120;28;20033;-78
2021/09/13 10:34:17;;;;;;;1.25;0.20;;;24.50;75.90;;;;;;5013592;28;20026;-78
2021/09/13 10:37:07;;;;;;;0.55;0.10;;;25.20;73.60;;;;;;5014324;28;20050;-80
2021/09/13 10:39:49;;;;;;;0.65;0.20;;;25.90;70.90;;;;;;5014372;28;20037;-80
2021/09/13 10:42:27;;;;;;;1.13;0.20;;;26.20;68.80;;;;;;5014181;28;20030;-80
2021/09/13 10:45:11;;;;;;;2.20;0.40;;;26.50;67.10;;;;;;5012952;28;20030;-77
2021/09/13 10:47:39;;;;;;;1.38;0.20;;;26.80;65.20;;;;;;5014484;28;20044;-76
2021/09/13 10:50:16;;;;;;;1.95;0.38;;;26.80;64.60;;;;;;5014398;28;20105;-77
2021/09/13 10:52:42;;;;;;;2.50;0.47;;;26.60;62.30;;;;;;5014205;28;20033;-77
2021/09/13 10:55:07;;;;;;;0.95;0.30;;;26.50;61.50;;;;;;4984185;28;20026;-80
2021/09/13 10:58:03;;;;;;;2.67;0.50;;;26.30;61.60;;;;;;4994064;28;20026;-80
2021/09/13 11:00:44;;;;;;;1.75;0.40;;;26.00;61.00;;;;;;5009172;28;20026;-77
2021/09/13 11:03:35;;;;;;;3.70;0.40;;;25.90;61.10;;;;;;4994074;28;20553;-77
2021/09/13 11:06:06;;;;;;;1.88;0.50;;;25.70;60.70;;;;;;4994517;28;20026;-79
2021/09/13 11:08:36;;;;;;;1.88;0.55;;;25.40;61.10;;;;;;5023010;28;20057;-78
2021/09/13 11:11:02;;;;;;;3.05;0.70;;;25.20;61.40;;;;;;5012527;28;20026;-77
2021/09/13 11:13:27;;;;;;;2.00;0.30;;;25.10;61.60;;;;;;5017013;28;20038;-77
2021/09/13 11:15:53;;;;;;;4.40;0.50;;;25.00;61.90;;;;;;5013770;28;20030;-80
2021/09/13 11:18:36;;;;;;;2.80;0.47;;;24.80;61.70;;;;;;4996066;28;20033;-79
2021/09/13 11:21:23;;;;;;;1.67;0.40;;;24.60;61.70;;;;;;5013615;28;20105;-79
2021/09/13 11:23:55;;;;;;;0.68;0.30;;;24.40;61.50;;;;;;5013573;28;20489;-79
2021/09/13 11:26:52;;;;;;;3.13;0.40;;;24.20;61.70;;;;;;5013825;28;20022;-81
2021/09/13 11:29:32;;;;;;;5.38;0.40;;;23.90;62.20;;;;;;5009299;28;20042;-80
2021/09/13 11:32:03;;;;;;;2.63;0.57;;;23.80;62.70;;;;;;5013340;28;20088;-80
2021/09/13 11:34:35;;;;;;;2.47;0.50;;;23.70;63.20;;;;;;5013512;28;20025;-81
2021/09/13 11:37:05;;;;;;;17.13;2.20;;;23.60;64.30;;;;;;5012226;28;20022;-80
2021/09/13 11:39:44;;;;;;;42.45;7.70;;;23.40;64.10;;;;;;5008968;28;20129;-79
2021/09/13 11:42:19;;;;;;;15.63;3.88;;;23.30;64.50;;;;;;4993502;28;20061;-79
2021/09/13 11:45:08;;;;;;;16.13;7.53;;;23.10;64.90;;;;;;4994137;28;20034;-79
2021/09/13 11:47:35;;;;;;;9.50;2.72;;;23.00;65.40;;;;;;4993928;28;20030;-78
2021/09/13 11:50:04;;;;;;;6.00;1.02;;;23.00;65.70;;;;;;5011125;28;20025;-78
2021/09/13 11:52:31;;;;;;;5.47;0.93;;;22.90;65.90;;;;;;5013499;28;20036;-79
2021/09/13 11:55:04;;;;;;;2.17;0.55;;;22.90;66.20;;;;;;5011952;28;20465;-80
2021/09/13 11:57:47;;;;;;;1.15;0.35;;;22.90;66.20;;;;;;5012023;28;20108;-78
2021/09/13 12:00:20;;;;;;;3.58;0.40;;;22.90;66.40;;;;;;5011997;28;20049;-79
2021/09/13 12:02:49;;;;;;;1.20;0.40;;;23.00;66.60;;;;;;5013253;28;20125;-79
2021/09/13 12:05:28;;;;;;;2.25;0.38;;;23.00;66.70;;;;;;4993952;28;20118;-79
2021/09/13 12:07:55;;;;;;;6.82;1.25;;;23.10;66.80;;;;;;4993864;28;20037;-78
2021/09/13 12:10:27;;;;;;;3.08;0.70;;;23.20;66.80;;;;;;5009882;28;20475;-78
2021/09/13 12:12:55;;;;;;;4.07;0.50;;;23.40;66.50;;;;;;5013080;28;20026;-79
2021/09/13 12:15:27;;;;;;;2.47;0.43;;;23.50;66.00;;;;;;5013069;28;20049;-79
2021/09/13 12:17:54;;;;;;;1.52;0.40;;;23.50;65.40;;;;;;5013397;28;20115;-79
2021/09/13 12:20:31;;;;;;;0.95;0.30;;;23.60;65.30;;;;;;4995476;28;20045;-80
2021/09/13 12:23:00;;;;;;;2.00;0.60;;;23.70;65.10;;;;;;5012886;28;20034;-81
2021/09/13 12:25:27;;;;;;;1.60;0.30;;;24.10;65.20;;;;;;5011593;28;20022;-78
2021/09/13 12:27:58;;;;;;;2.35;0.28;;;24.50;64.60;;;;;;5012926;28;20034;-79
2021/09/13 12:30:33;;;;;;;2.70;0.47;;;24.80;63.80;;;;;;5012763;28;20494;-80
2021/09/13 12:33:05;;;;;;;1.35;0.32;;;25.20;62.80;;;;;;5011631;28;20030;-82
2021/09/13 12:35:42;;;;;;;1.02;0.30;;;25.70;62.20;;;;;;5015865;28;20084;-81
2021/09/13 12:38:22;;;;;;;1.73;0.40;;;26.10;61.20;;;;;;5016442;28;20447;-79
2021/09/13 12:41:00;;;;;;;2.72;0.30;;;26.40;60.30;;;;;;5015968;28;20084;-81
2021/09/13 12:43:31;;;;;;;1.00;0.30;;;26.70;59.60;;;;;;5014585;28;20421;-79
2021/09/13 12:46:18;;;;;;;4.13;0.50;;;27.10;58.70;;;;;;5016383;28;20390;-78
2021/09/13 12:48:49;;;;;;;0.82;0.20;;;27.30;57.50;;;;;;5016363;28;20034;-77
2021/09/13 12:51:20;;;;;;;0.77;0.30;;;27.70;56.90;;;;;;5016330;28;20037;-78